| time (UTC) | temp F | wind direction | speed MPH | gust MPH | rain 1hr in | rain 24hr in | rain mn in | humidity % | barometer mb |
| 20260506160046 | 60 | 289 | 0.0 | 0.0 | 0.02 | 0.07 | 0.07 | 1 | 1009.3 |
| 20260506154537 | 60 | 284 | 0.0 | 0.0 | 0.01 | 0.06 | 0.06 | 1 | 1009.0 |
| 20260506153033 | 60 | 294 | 0.0 | 0.0 | 0.01 | 0.06 | 0.06 | 1 | 1008.8 |
| 20260506151530 | 60 | 293 | 0.0 | 0.0 | 0.00 | 0.05 | 0.05 | 1 | 1008.7 |
| 20260506150025 | 60 | 274 | 0.0 | 0.0 | 0.00 | 0.05 | 0.05 | 1 | 1008.5 |
| 20260506144502 | 59 | 248 | 0.0 | 0.0 | 0.00 | 0.05 | 0.05 | 1 | 1008.2 |
| 20260506143100 | 59 | 273 | 0.0 | 1.0 | 0.00 | 0.05 | 0.05 | 1 | 1008.1 |
| 20260506141539 | 59 | 341 | 0.0 | 0.0 | 0.00 | 0.05 | 0.05 | 1 | 1007.8 |
| 20260506140037 | 59 | 289 | 0.0 | 0.0 | 0.00 | 0.05 | 0.05 | 1 | 1007.6 |
| 20260506134520 | 58 | 278 | 0.0 | 0.0 | 0.01 | 0.05 | 0.05 | 1 | 1007.8 |
| 20260506133010 | 58 | 202 | 0.0 | 0.0 | 0.01 | 0.05 | 0.05 | 1 | 1007.8 |
| 20260506131559 | 58 | 122 | 0.0 | 0.0 | 0.01 | 0.05 | 0.05 | 1 | 1007.8 |
| 20260506130052 | 57 | 115 | 0.0 | 0.0 | 0.01 | 0.05 | 0.05 | 1 | 1007.6 |
| 20260506124522 | 57 | 113 | 0.0 | 0.0 | 0.00 | 0.04 | 0.04 | 1 | 1007.4 |
| 20260506123018 | 56 | 113 | 0.0 | 0.0 | 0.01 | 0.04 | 0.04 | 1 | 1007.6 |
| 20260506121657 | 56 | 132 | 0.0 | 0.0 | 0.01 | 0.04 | 0.04 | 1 | 1007.5 |
| 20260506120053 | 56 | 132 | 0.0 | 0.0 | 0.01 | 0.04 | 0.04 | 1 | 1007.4 |
| 20260506114536 | 56 | 132 | 0.0 | 0.0 | 0.01 | 0.04 | 0.04 | 1 | 1007.3 |
| 20260506113032 | 0 | 0.0 | 0.0 | 0.00 | 0.03 | 0.03 | 1007.2 | ||
| 20260506111630 | 0 | 0.0 | 0.0 | 0.00 | 0.03 | 0.03 | 1007.1 | ||
| 20260506110024 | 0 | 0.0 | 0.0 | 0.00 | 0.03 | 0.03 | 1007.1 | ||
| 20260506104519 | 0 | 0.0 | 0.0 | 0.00 | 0.03 | 0.03 | 1007.0 | ||
| 20260506103022 | 0 | 0.0 | 0.0 | 0.00 | 0.03 | 0.03 | 1006.9 | ||
| 20260506101509 | 0 | 0.0 | 0.0 | 0.00 | 0.03 | 0.03 | 1007.2 | ||
| 20260506100006 | 0 | 0.0 | 0.0 | 0.00 | 0.03 | 0.03 | 1007.2 | ||
| 20260506094601 | 0 | 0.0 | 0.0 | 0.01 | 0.03 | 0.03 | 1007.7 | ||
| 20260506093041 | 0 | 0.0 | 0.0 | 0.02 | 0.03 | 0.03 | 1008.0 | ||
| 20260506091520 | 0 | 0.0 | 0.0 | 0.03 | 0.03 | 0.03 | 1007.9 | ||
| 20260506090015 | 56 | 136 | 0.0 | 0.0 | 0.03 | 0.03 | 0.03 | 1 | 1008.1 |
| 20260506084600 | 56 | 136 | 0.0 | 0.0 | 0.02 | 0.02 | 0.02 | 1 | 1007.4 |
| 20260506083100 | 56 | 136 | 0.0 | 0.0 | 0.01 | 0.01 | 0.01 | 1 | 1007.7 |
| 20260506081555 | 56 | 136 | 0.0 | 0.0 | 0.00 | 0.00 | 0.00 | 1 | 1007.7 |
| 20260506073039 | 56 | 136 | 0.0 | 0.0 | 0.00 | 0.00 | 0.00 | 1 | 1007.3 |
| 20260506071538 | 56 | 136 | 0.0 | 0.0 | 0.00 | 0.00 | 0.00 | 1 | 1007.0 |
| 20260506061542 | 57 | 136 | 0.0 | 0.0 | 0.00 | 0.00 | 0.00 | 1 | 1007.7 |
| 20260506050150 | 58 | 136 | 0.0 | 0.0 | 0.00 | 0.00 | 0.00 | 14 | 1008.4 |
| 20260506044532 | 58 | 136 | 0.0 | 0.0 | 0.00 | 0.00 | 0.00 | 17 | 1009.0 |
| 20260506043030 | 58 | 136 | 0.0 | 0.0 | 0.00 | 0.00 | 0.00 | 20 | 1008.8 |
| 20260506041514 | 59 | 136 | 0.0 | 0.0 | 0.00 | 0.00 | 0.00 | 19 | 1008.3 |
| 20260506040009 | 59 | 136 | 0.0 | 0.0 | 0.00 | 0.00 | 0.00 | 23 | 1008.6 |
| 20260506034547 | 59 | 136 | 0.0 | 0.0 | 0.00 | 0.00 | 0.00 | 27 | 1008.7 |
| 20260506033043 | 59 | 136 | 0.0 | 0.0 | 0.00 | 0.00 | 0.00 | 25 | 1008.4 |
| 20260506031521 | 59 | 136 | 0.0 | 0.0 | 0.00 | 0.00 | 0.00 | 20 | 1008.8 |
| 20260506030027 | 59 | 136 | 0.0 | 0.0 | 0.00 | 0.00 | 0.00 | 21 | 1008.5 |
| 20260506024600 | 60 | 136 | 0.0 | 0.0 | 0.00 | 0.00 | 0.00 | 28 | 1008.7 |
| 20260506023050 | 60 | 136 | 0.0 | 0.0 | 0.00 | 0.00 | 0.00 | 36 | 1008.7 |
| 20260506021535 | 61 | 136 | 0.0 | 0.0 | 0.00 | 0.00 | 0.00 | 40 | 1008.5 |
| 20260506020030 | 61 | 136 | 0.0 | 0.0 | 0.00 | 0.00 | 0.00 | 41 | 1008.8 |
| 20260506014532 | 62 | 136 | 0.0 | 0.0 | 0.00 | 0.00 | 0.00 | 56 | 1009.1 |
| 20260506013022 | 63 | 136 | 0.0 | 0.0 | 0.00 | 0.00 | 0.00 | 56 | 1009.2 |
| 20260506011518 | 63 | 136 | 0.0 | 0.0 | 0.00 | 0.00 | 0.00 | 62 | 1008.8 |
| 20260506010014 | 63 | 136 | 0.0 | 0.0 | 0.00 | 0.00 | 0.00 | 59 | 1008.6 |
| 20260506004509 | 64 | 136 | 0.0 | 0.0 | 0.00 | 0.00 | 0.00 | 60 | 1008.6 |
| 20260506003013 | 66 | 136 | 0.0 | 0.0 | 0.00 | 0.00 | 0.00 | 63 | 1008.9 |
| 20260506001501 | 67 | 136 | 0.0 | 0.0 | 0.00 | 0.00 | 0.00 | 62 | 1008.8 |
| 20260506000040 | 69 | 215 | 0.0 | 0.0 | 0.00 | 0.00 | 0.00 | 58 | 1008.7 |
| 20260505234537 | 70 | 215 | 0.0 | 0.0 | 0.00 | 0.00 | 0.00 | 56 | 1008.6 |
| 20260505233017 | 71 | 215 | 0.0 | 0.0 | 0.00 | 0.00 | 0.00 | 50 | 1008.8 |
| 20260505231510 | 72 | 250 | 0.0 | 0.0 | 0.00 | 0.00 | 0.00 | 49 | 1008.6 |
| 20260505230057 | 73 | 271 | 0.0 | 0.0 | 0.00 | 0.00 | 0.00 | 47 | 1008.6 |
| 20260505224547 | 74 | 284 | 0.0 | 0.0 | 0.00 | 0.00 | 0.00 | 43 | 1008.7 |
| 20260505223021 | 73 | 282 | 0.0 | 0.0 | 0.00 | 0.00 | 0.00 | 45 | 1008.7 |
| 20260505221518 | 73 | 282 | 0.0 | 0.0 | 0.00 | 0.00 | 0.00 | 46 | 1009.0 |
| 20260505220056 | 74 | 271 | 0.0 | 0.0 | 0.00 | 0.00 | 0.00 | 43 | 1009.2 |
| 20260505214552 | 74 | 284 | 0.0 | 7.0 | 0.00 | 0.00 | 0.00 | 43 | 1009.4 |
| 20260505213031 | 74 | 265 | 0.0 | 8.0 | 0.00 | 0.00 | 0.00 | 42 | 1009.6 |
| 20260505211527 | 74 | 281 | 0.0 | 1.0 | 0.00 | 0.00 | 0.00 | 42 | 1009.5 |
| 20260505210006 | 75 | 314 | 0.0 | 8.0 | 0.00 | 0.00 | 0.00 | 44 | 1009.4 |
| 20260505204501 | 75 | 289 | 0.0 | 1.0 | 0.00 | 0.00 | 0.00 | 45 | 1009.3 |
| 20260505203040 | 75 | 265 | 0.0 | 0.0 | 0.00 | 0.00 | 0.00 | 43 | 1009.3 |
| 20260505201537 | 75 | 224 | 0.0 | 9.0 | 0.00 | 0.00 | 0.00 | 43 | 1009.4 |
| 20260505200019 | 75 | 284 | 0.0 | 5.0 | 0.00 | 0.00 | 0.00 | 45 | 1009.6 |
| 20260505194514 | 75 | 276 | 0.0 | 1.0 | 0.00 | 0.00 | 0.00 | 44 | 1009.6 |
| 20260505193052 | 75 | 245 | 1.0 | 12.0 | 0.00 | 0.00 | 0.00 | 41 | 1009.6 |
| 20260505191608 | 75 | 229 | 0.0 | 7.0 | 0.00 | 0.00 | 0.00 | 43 | 1009.8 |
| 20260505190026 | 75 | 281 | 0.0 | 7.0 | 0.00 | 0.00 | 0.00 | 44 | 1009.8 |
| 20260505184521 | 75 | 291 | 0.0 | 10.0 | 0.00 | 0.00 | 0.00 | 42 | 1009.8 |
| 20260505183101 | 75 | 275 | 1.0 | 17.0 | 0.00 | 0.00 | 0.00 | 42 | 1010.0 |
| 20260505181556 | 76 | 272 | 2.0 | 23.0 | 0.00 | 0.00 | 0.00 | 41 | 1009.7 |
| 20260505180045 | 76 | 160 | 0.0 | 0.0 | 0.00 | 0.00 | 0.00 | 46 | 1009.8 |
| 20260505174535 | 76 | 246 | 0.0 | 21.0 | 0.00 | 0.00 | 0.00 | 44 | 1009.9 |
| 20260505173008 | 76 | 277 | 0.0 | 4.0 | 0.00 | 0.00 | 0.00 | 44 | 1010.2 |
| 20260505171503 | 75 | 293 | 0.0 | 8.0 | 0.00 | 0.00 | 0.00 | 46 | 1010.2 |
| 20260505170041 | 75 | 267 | 0.0 | 8.0 | 0.00 | 0.00 | 0.00 | 47 | 1010.4 |
| 20260505164541 | 75 | 273 | 0.0 | 15.0 | 0.00 | 0.00 | 0.00 | 45 | 1010.7 |
| 20260505163014 | 75 | 272 | 0.0 | 9.0 | 0.00 | 0.00 | 0.00 | 46 | 1010.7 |
| 20260505161511 | 75 | 258 | 0.0 | 7.0 | 0.00 | 0.00 | 0.00 | 48 | 1010.7 |